createdAt,value
2023-06-17T00:00:35.926Z,96.34
2023-06-17T00:01:35.881Z,96.34
2023-06-17T00:02:35.905Z,96.34
2023-06-17T00:03:35.939Z,96.23
2023-06-17T00:04:35.845Z,96.14
2023-06-17T00:05:35.834Z,96.14
2023-06-17T00:06:35.837Z,96.14
2023-06-17T00:07:35.801Z,96.03
2023-06-17T00:08:35.782Z,95.94
2023-06-17T00:09:35.787Z,95.98
2023-06-17T00:10:35.754Z,95.67
2023-06-17T00:11:35.745Z,95.47
2023-06-17T00:12:35.727Z,95.42
2023-06-17T00:13:35.728Z,95.53
2023-06-17T00:14:35.710Z,95.53
2023-06-17T00:15:35.691Z,95.53
2023-06-17T00:16:35.677Z,95.63
2023-06-17T00:17:35.733Z,95.63
2023-06-17T00:18:35.670Z,95.63
2023-06-17T00:19:35.649Z,95.63
2023-06-17T00:20:35.623Z,95.67
2023-06-17T00:21:35.627Z,95.63
2023-06-17T00:22:35.589Z,95.73
2023-06-17T00:23:35.592Z,95.78
2023-06-17T00:24:35.630Z,95.78
2023-06-17T00:25:35.553Z,95.87
2023-06-17T00:26:35.539Z,95.87
2023-06-17T00:27:35.528Z,95.87
2023-06-17T00:28:35.536Z,95.98
2023-06-17T00:29:35.507Z,95.98
2023-06-17T00:30:35.491Z,95.98
2023-06-17T00:31:35.480Z,95.98
2023-06-17T00:32:35.506Z,95.98
2023-06-17T00:33:35.463Z,96.08
2023-06-17T00:34:35.430Z,96.08
2023-06-17T00:35:35.433Z,96.08
2023-06-17T00:36:35.402Z,96.18
2023-06-17T00:37:35.402Z,96.08
2023-06-17T00:38:35.382Z,96.08
2023-06-17T00:39:35.364Z,96.08
2023-06-17T00:40:35.356Z,96.08
2023-06-17T00:41:35.339Z,95.98
2023-06-17T00:42:35.336Z,96.02
2023-06-17T00:43:35.321Z,96.02
2023-06-17T00:44:35.305Z,96.12
2023-06-17T00:45:35.296Z,96.02
2023-06-17T00:46:35.349Z,96.02
2023-06-17T00:47:35.298Z,96.02
2023-06-17T00:48:35.242Z,96.02
2023-06-17T00:49:35.231Z,96.02
2023-06-17T00:50:35.213Z,96.02
2023-06-17T00:51:35.206Z,95.92
2023-06-17T00:52:41.717Z,95.92
2023-06-17T00:53:36.183Z,95.97
2023-06-17T00:54:35.163Z,95.86
2023-06-17T00:55:35.162Z,95.86
2023-06-17T00:56:35.146Z,95.76
2023-06-17T00:57:35.143Z,95.86
2023-06-17T00:58:35.107Z,95.76
2023-06-17T00:59:35.093Z,95.81
2023-06-17T01:00:35.087Z,95.81
2023-06-17T01:01:35.082Z,95.81
2023-06-17T01:02:35.123Z,95.81
2023-06-17T01:03:35.103Z,95.91
2023-06-17T01:04:35.039Z,96.01
2023-06-17T01:05:35.013Z,96.01
2023-06-17T01:06:35.016Z,96.01
2023-06-17T01:07:35.009Z,96.01
2023-06-17T01:08:35.021Z,95.95
2023-06-17T01:09:34.971Z,95.95
2023-06-17T01:10:34.969Z,95.85
2023-06-17T01:11:34.966Z,95.85
2023-06-17T01:12:34.934Z,95.85
2023-06-17T01:13:34.930Z,95.95
2023-06-17T01:14:34.916Z,95.95
2023-06-17T01:15:34.895Z,95.95
2023-06-17T01:16:34.975Z,96.00
2023-06-17T01:17:34.893Z,96.00
2023-06-17T01:18:34.851Z,95.90
2023-06-17T01:19:34.829Z,96.00
2023-06-17T01:20:34.839Z,96.00
2023-06-17T01:21:34.811Z,96.00
2023-06-17T01:22:34.796Z,96.00
2023-06-17T01:23:34.822Z,96.10
2023-06-17T01:24:34.842Z,96.00
2023-06-17T01:25:34.765Z,96.10
2023-06-17T01:26:34.745Z,96.15
2023-06-17T01:27:34.728Z,96.15
2023-06-17T01:28:34.735Z,96.04
2023-06-17T01:29:34.725Z,96.04
2023-06-17T01:30:34.702Z,96.15
2023-06-17T01:31:34.686Z,96.15
2023-06-17T01:32:34.699Z,96.15
2023-06-17T01:33:34.650Z,96.15
2023-06-17T01:34:34.654Z,96.15
2023-06-17T01:35:34.638Z,96.15
2023-06-17T01:36:34.610Z,96.15
2023-06-17T01:37:34.594Z,96.15
2023-06-17T01:38:34.594Z,96.25
2023-06-17T01:39:34.584Z,96.15
2023-06-17T01:40:34.573Z,96.15
2023-06-17T01:41:34.543Z,96.25
2023-06-17T01:42:34.535Z,96.25
2023-06-17T01:43:34.516Z,96.19
2023-06-17T01:44:34.514Z,96.19
2023-06-17T01:45:34.507Z,96.19
2023-06-17T01:46:34.530Z,96.09
2023-06-17T01:47:34.494Z,96.09
2023-06-17T01:48:34.454Z,96.09
2023-06-17T01:49:34.447Z,96.09
2023-06-17T01:50:34.434Z,96.19
2023-06-17T01:51:34.428Z,96.19
2023-06-17T01:52:34.409Z,96.30
2023-06-17T01:53:34.386Z,96.19
2023-06-17T01:54:34.386Z,96.30
2023-06-17T01:55:34.361Z,96.30
2023-06-17T01:56:34.356Z,96.30
2023-06-17T01:57:34.334Z,96.19
2023-06-17T01:58:34.349Z,96.14
2023-06-17T01:59:34.310Z,96.23
2023-06-17T02:00:34.319Z,96.14
2023-06-17T02:01:34.282Z,96.23
2023-06-17T02:02:34.322Z,96.14
2023-06-17T02:03:34.316Z,96.23
2023-06-17T02:04:34.251Z,96.14
2023-06-17T02:05:34.229Z,96.14
2023-06-17T02:06:34.232Z,96.14
2023-06-17T02:07:34.204Z,96.14
2023-06-17T02:08:34.206Z,96.14
2023-06-17T02:09:34.180Z,96.14
2023-06-17T02:10:34.171Z,96.18
2023-06-17T02:11:34.155Z,96.08
2023-06-17T02:12:34.156Z,96.08
2023-06-17T02:13:34.143Z,96.08
2023-06-17T02:14:34.125Z,96.08
2023-06-17T02:15:34.103Z,96.08
2023-06-17T02:16:34.109Z,96.08
2023-06-17T02:17:34.114Z,96.08
2023-06-17T02:18:34.070Z,96.08
2023-06-17T02:19:34.052Z,96.08
2023-06-17T02:20:34.048Z,96.08
2023-06-17T02:21:34.028Z,96.18
2023-06-17T02:22:34.034Z,96.18
2023-06-17T02:23:34.005Z,96.22
2023-06-17T02:24:34.121Z,96.33
2023-06-17T02:25:33.973Z,96.22
2023-06-17T02:26:33.977Z,96.22
2023-06-17T02:27:33.961Z,96.22
2023-06-17T02:28:33.940Z,96.22
2023-06-17T02:29:33.927Z,96.33
2023-06-17T02:30:33.914Z,96.43
2023-06-17T02:31:33.970Z,96.53
2023-06-17T02:32:33.958Z,96.53
2023-06-17T02:33:33.876Z,96.43
2023-06-17T02:34:33.862Z,96.43
2023-06-17T02:35:33.847Z,96.33
2023-06-17T02:36:33.858Z,96.33
2023-06-17T02:37:33.828Z,96.33
2023-06-17T02:38:33.819Z,96.22
2023-06-17T02:39:33.796Z,96.22
2023-06-17T02:40:33.811Z,96.22
2023-06-17T02:41:33.776Z,96.22
2023-06-17T02:42:33.759Z,96.22
2023-06-17T02:43:33.744Z,96.22
2023-06-17T02:44:33.738Z,96.22
2023-06-17T02:45:33.735Z,96.27
2023-06-17T02:46:33.726Z,96.37
2023-06-17T02:47:33.767Z,96.37
2023-06-17T02:48:33.685Z,96.27
2023-06-17T02:49:33.661Z,96.27
2023-06-17T02:50:33.664Z,96.27
2023-06-17T02:51:33.640Z,96.27
2023-06-17T02:52:33.628Z,96.27
2023-06-17T02:53:33.608Z,96.37
2023-06-17T02:54:33.608Z,96.43
2023-06-17T02:55:33.596Z,96.43
2023-06-17T02:56:33.575Z,96.43
2023-06-17T02:57:33.583Z,96.43
2023-06-17T02:58:33.549Z,96.43
2023-06-17T02:59:33.541Z,96.43
2023-06-17T03:00:33.520Z,96.33
2023-06-17T03:01:33.578Z,96.33
2023-06-17T03:02:33.552Z,96.33
2023-06-17T03:03:33.503Z,96.22
2023-06-17T03:04:33.477Z,96.22
2023-06-17T03:05:33.453Z,96.12
2023-06-17T03:06:33.446Z,96.02
2023-06-17T03:07:33.442Z,96.02
2023-06-17T03:08:33.425Z,96.02
2023-06-17T03:09:33.406Z,96.17
2023-06-17T03:10:33.391Z,95.96
2023-06-17T03:11:33.384Z,95.86
2023-06-17T03:12:33.367Z,95.96
2023-06-17T03:13:33.364Z,95.96
2023-06-17T03:14:33.344Z,95.96
2023-06-17T03:15:33.321Z,95.90
2023-06-17T03:16:33.335Z,95.90
2023-06-17T03:17:33.322Z,95.90
2023-06-17T03:18:33.297Z,96.01
2023-06-17T03:19:33.279Z,96.01
2023-06-17T03:20:33.269Z,96.11
2023-06-17T03:21:33.246Z,96.21
2023-06-17T03:22:33.247Z,96.21
2023-06-17T03:23:33.231Z,96.21
2023-06-17T03:24:33.355Z,96.21
2023-06-17T03:25:33.194Z,96.21
2023-06-17T03:26:33.198Z,96.31
2023-06-17T03:27:33.187Z,96.31
2023-06-17T03:28:33.164Z,96.31
2023-06-17T03:29:33.140Z,96.31
2023-06-17T03:30:33.252Z,96.31
2023-06-17T03:31:33.131Z,96.21
2023-06-17T03:32:33.213Z,96.21
2023-06-17T03:33:33.098Z,96.21
2023-06-17T03:34:33.085Z,96.21
2023-06-17T03:35:33.072Z,96.21
2023-06-17T03:36:33.064Z,96.31
2023-06-17T03:37:33.050Z,96.21
2023-06-17T03:38:33.027Z,96.42
2023-06-17T03:39:33.015Z,96.42
2023-06-17T03:40:33.004Z,96.42
2023-06-17T03:41:33.007Z,96.42
2023-06-17T03:42:32.974Z,96.31
2023-06-17T03:43:32.960Z,96.31
2023-06-17T03:44:32.955Z,96.21
2023-06-17T03:45:32.934Z,96.21
2023-06-17T03:46:32.932Z,96.31
2023-06-17T03:47:32.966Z,96.42
2023-06-17T03:48:32.905Z,96.42
2023-06-17T03:49:32.887Z,96.42
2023-06-17T04:02:57.136Z,96.46
2023-06-17T04:03:57.086Z,96.56
2023-06-17T04:04:57.038Z,96.56
2023-06-17T04:05:57.010Z,96.51
2023-06-17T04:06:57.004Z,96.62
2023-06-17T04:07:56.976Z,96.72
2023-06-17T04:08:57.059Z,96.72
2023-06-17T04:10:06.416Z,96.72
2023-06-17T04:10:57.944Z,96.72
2023-06-17T04:11:56.933Z,96.83
2023-06-17T04:12:56.915Z,96.83
2023-06-17T04:13:56.905Z,96.83
2023-06-17T04:14:56.907Z,96.83
2023-06-17T04:15:56.871Z,96.78
2023-06-17T04:16:56.924Z,96.88
2023-06-17T04:17:58.483Z,96.88
2023-06-17T04:18:56.858Z,96.88
2023-06-17T04:19:56.828Z,96.98
2023-06-17T04:20:56.810Z,96.98
2023-06-17T04:21:56.798Z,96.98
2023-06-17T04:22:56.787Z,96.94
2023-06-17T04:23:56.790Z,97.04
2023-06-17T04:24:56.819Z,97.04
2023-06-17T04:25:56.738Z,97.04
2023-06-17T04:26:56.740Z,97.14
2023-06-17T04:27:56.725Z,97.09
2023-06-17T04:28:56.711Z,97.09
2023-06-17T04:29:56.689Z,97.20
2023-06-17T04:30:56.676Z,97.20
2023-06-17T04:31:56.664Z,97.20
2023-06-17T04:32:56.744Z,97.20
2023-06-17T04:33:56.631Z,97.20
2023-06-17T04:34:56.696Z,97.16
2023-06-17T04:35:56.606Z,97.16
2023-06-17T04:36:56.604Z,97.16
2023-06-17T04:37:56.599Z,97.16
2023-06-17T04:38:56.576Z,97.16
2023-06-17T04:39:56.549Z,97.16
2023-06-17T04:40:56.558Z,97.11
2023-06-17T04:41:56.544Z,97.11
2023-06-17T04:42:56.527Z,97.21
2023-06-17T04:43:56.501Z,97.21
2023-06-17T04:44:56.494Z,97.11
2023-06-17T04:45:56.472Z,97.06
2023-06-17T04:46:56.494Z,97.06
2023-06-17T04:47:56.498Z,97.06
2023-06-17T04:48:56.449Z,97.06
2023-06-17T04:49:56.422Z,97.06
2023-06-17T04:50:56.415Z,97.06
2023-06-17T04:51:56.408Z,97.06
2023-06-17T04:52:56.393Z,97.06
2023-06-17T04:53:56.378Z,96.96
2023-06-17T04:54:56.363Z,96.96
2023-06-17T04:55:56.344Z,96.92
2023-06-17T04:56:56.345Z,96.92
2023-06-17T04:57:56.319Z,96.92
2023-06-17T04:58:56.315Z,96.92
2023-06-17T04:59:56.299Z,96.92
2023-06-17T05:00:56.324Z,96.92
2023-06-17T05:01:56.275Z,96.92
2023-06-17T05:02:56.286Z,96.92
2023-06-17T05:03:56.288Z,97.02
2023-06-17T05:04:56.235Z,96.92
2023-06-17T05:05:56.224Z,97.02
2023-06-17T05:06:56.208Z,97.02
2023-06-17T05:07:56.188Z,96.92
2023-06-17T05:08:56.190Z,96.97
2023-06-17T05:09:56.157Z,96.97
2023-06-17T05:10:56.161Z,96.97
2023-06-17T05:11:56.136Z,96.87
2023-06-17T05:12:56.130Z,96.87
2023-06-17T05:13:56.119Z,96.87
2023-06-17T05:14:56.143Z,96.87
2023-06-17T05:15:56.098Z,96.87
2023-06-17T05:16:56.152Z,96.87
2023-06-17T05:17:56.086Z,96.83
2023-06-17T05:18:56.057Z,96.83
2023-06-17T05:19:56.046Z,96.83
2023-06-17T05:20:56.019Z,96.83
2023-06-17T05:21:56.002Z,96.83
2023-06-17T05:22:55.997Z,96.83
2023-06-17T05:23:56.000Z,96.83
2023-06-17T05:24:55.980Z,96.72
2023-06-17T05:25:55.950Z,96.72
2023-06-17T05:26:55.944Z,96.68
2023-06-17T05:27:55.929Z,96.58
2023-06-17T05:28:55.927Z,96.58
2023-06-17T05:29:55.912Z,96.58
2023-06-17T05:30:55.930Z,96.58
2023-06-17T05:31:55.872Z,96.58
2023-06-17T05:32:55.878Z,96.58
2023-06-17T05:33:55.859Z,96.58
2023-06-17T05:34:55.837Z,96.58
2023-06-17T05:35:55.828Z,96.58
2023-06-17T05:36:55.812Z,96.47
2023-06-17T05:37:55.798Z,96.43
2023-06-17T05:38:55.799Z,96.43
2023-06-17T05:39:55.772Z,96.43
2023-06-17T05:40:55.758Z,96.43
2023-06-17T05:41:55.762Z,96.43
2023-06-17T05:42:55.744Z,96.43
2023-06-17T05:43:55.724Z,96.38
2023-06-17T05:44:55.709Z,96.28
2023-06-17T05:45:55.733Z,96.28
2023-06-17T05:46:55.684Z,96.18
2023-06-17T05:47:55.750Z,96.18
2023-06-17T05:48:55.658Z,96.14
2023-06-17T05:49:55.759Z,96.23
2023-06-17T05:50:55.629Z,96.14
2023-06-17T05:51:55.612Z,96.19
2023-06-17T05:52:55.616Z,96.19
2023-06-17T05:53:55.587Z,96.09
2023-06-17T05:54:55.578Z,96.04
2023-06-17T05:55:55.566Z,96.04
2023-06-17T05:56:55.560Z,95.94
2023-06-17T05:57:55.552Z,95.94
2023-06-17T05:58:55.535Z,95.79
2023-06-17T05:59:55.509Z,95.59
2023-06-17T06:00:55.520Z,95.50
2023-06-17T06:01:55.569Z,95.50
2023-06-17T06:02:55.519Z,95.19
2023-06-17T06:03:55.533Z,95.19
2023-06-17T06:04:55.442Z,95.19
2023-06-17T06:05:55.441Z,95.19
2023-06-17T06:06:55.425Z,95.19
2023-06-17T06:07:55.397Z,95.09
2023-06-17T06:08:55.390Z,94.48
2023-06-17T06:09:55.379Z,94.38
2023-06-17T06:10:55.389Z,94.38
2023-06-17T06:11:55.354Z,94.38
2023-06-17T06:12:55.340Z,94.48
2023-06-17T06:13:55.319Z,94.54
2023-06-17T06:14:55.331Z,94.64
2023-06-17T06:15:55.333Z,94.74
2023-06-17T06:16:55.285Z,94.74
2023-06-17T06:17:55.397Z,94.74
2023-06-17T06:18:55.259Z,94.74
2023-06-17T06:19:55.241Z,94.84
2023-06-17T06:20:55.237Z,94.84
2023-06-17T06:21:55.221Z,94.84
2023-06-17T06:22:55.203Z,94.54
2023-06-17T06:23:58.067Z,94.54
2023-06-17T06:24:55.177Z,94.43
2023-06-17T06:25:55.167Z,94.23
2023-06-17T06:26:55.155Z,93.62
2023-06-17T06:27:55.161Z,93.42
2023-06-17T06:28:55.127Z,93.48
2023-06-17T06:29:55.116Z,93.68
2023-06-17T06:30:55.114Z,93.68
2023-06-17T06:31:55.081Z,93.58
2023-06-17T06:32:55.094Z,93.54
2023-06-17T06:33:55.055Z,93.63
2023-06-17T06:34:55.084Z,93.74
2023-06-17T06:35:55.027Z,93.74
2023-06-17T06:36:55.023Z,93.79
2023-06-17T06:37:54.999Z,93.59
2023-06-17T06:38:55.014Z,92.88
2023-06-17T06:39:54.982Z,91.87
2023-06-17T06:40:54.980Z,92.18
2023-06-17T06:41:54.947Z,92.38
2023-06-17T06:42:54.973Z,92.48
2023-06-17T06:43:54.937Z,92.58
2023-06-17T06:44:54.932Z,92.44
2023-06-17T06:45:54.920Z,92.64
2023-06-17T06:46:54.886Z,92.74
2023-06-17T06:47:54.922Z,92.24
2023-06-17T06:48:54.871Z,92.13
2023-06-17T06:49:54.844Z,90.92
2023-06-17T06:50:54.836Z,90.01
2023-06-17T06:51:54.814Z,89.65
2023-06-17T06:52:54.811Z,89.04
2023-06-17T06:53:54.812Z,88.79
2023-06-17T06:54:54.802Z,88.90
2023-06-17T06:55:54.771Z,89.50
2023-06-17T06:56:54.754Z,89.20
2023-06-17T06:57:54.758Z,88.29
2023-06-17T06:58:54.736Z,88.49
2023-06-17T06:59:54.716Z,89.26
2023-06-17T07:00:54.743Z,89.26
2023-06-17T07:01:54.686Z,89.66
2023-06-17T07:02:54.740Z,89.56
2023-06-17T07:03:54.665Z,89.56
2023-06-17T07:04:54.670Z,89.56
2023-06-17T07:05:54.661Z,89.52
2023-06-17T07:06:54.618Z,89.92
2023-06-17T07:07:54.604Z,90.12
2023-06-17T07:08:54.606Z,90.03
2023-06-17T07:09:54.582Z,89.92
2023-06-17T07:10:54.581Z,86.99
2023-06-17T07:11:54.572Z,87.30
2023-06-17T07:12:54.553Z,87.05
2023-06-17T07:13:54.534Z,87.05
2023-06-17T07:14:54.513Z,87.15
2023-06-17T07:15:54.510Z,86.75
2023-06-17T07:16:54.534Z,86.95
2023-06-17T07:17:54.495Z,85.24
2023-06-17T07:18:54.473Z,85.14
2023-06-17T07:19:54.445Z,85.34
2023-06-17T07:20:54.438Z,85.34
2023-06-17T07:21:54.413Z,85.14
2023-06-17T07:22:54.421Z,85.40
2023-06-17T07:23:54.437Z,85.60
2023-06-17T07:24:54.378Z,85.50
2023-06-17T07:25:56.170Z,84.59
2023-06-17T07:26:54.372Z,84.79
2023-06-17T07:27:54.347Z,84.79
2023-06-17T07:28:54.334Z,84.35
2023-06-17T07:29:54.310Z,83.44
2023-06-17T07:30:54.343Z,82.73
2023-06-17T07:31:54.305Z,83.84
2023-06-17T07:32:54.337Z,83.00
2023-06-17T07:33:59.605Z,82.70
2023-06-17T07:34:58.060Z,82.39
2023-06-17T07:35:54.236Z,80.58
2023-06-17T07:36:54.237Z,80.58
2023-06-17T07:37:54.212Z,81.38
2023-06-17T07:38:54.212Z,82.29
2023-06-17T07:39:54.179Z,82.56
2023-06-17T07:40:54.169Z,82.56
2023-06-17T07:41:54.172Z,82.86
2023-06-17T07:42:54.210Z,81.15
2023-06-17T07:43:54.129Z,82.86
2023-06-17T07:44:54.117Z,82.65
2023-06-17T07:45:54.172Z,81.55
2023-06-17T07:46:54.102Z,81.35
2023-06-17T07:47:54.111Z,81.15
2023-06-17T07:48:54.065Z,81.04
2023-06-17T07:49:54.051Z,80.70
2023-06-17T07:50:54.045Z,80.00
2023-06-17T07:51:54.024Z,80.10
2023-06-17T07:52:54.084Z,80.00
2023-06-17T07:53:54.002Z,77.95
2023-06-17T07:54:53.982Z,75.73
2023-06-17T07:55:53.982Z,73.82
2023-06-17T07:56:53.968Z,74.99
2023-06-17T07:57:53.937Z,73.58
2023-06-17T07:58:53.934Z,74.08
2023-06-17T07:59:53.914Z,72.24
2023-06-17T08:00:53.927Z,72.03
2023-06-17T08:01:53.926Z,72.91
2023-06-17T08:02:53.992Z,73.21
2023-06-17T08:03:54.000Z,72.71
2023-06-17T08:04:53.849Z,70.89
2023-06-17T08:05:53.856Z,70.56
2023-06-17T08:06:53.819Z,69.35
2023-06-17T08:07:53.815Z,68.55
2023-06-17T08:08:53.806Z,67.85
2023-06-17T08:09:53.796Z,68.35
2023-06-17T08:10:53.779Z,69.12
2023-06-17T08:11:53.763Z,69.42
2023-06-17T08:12:53.742Z,69.42
2023-06-17T08:13:53.737Z,68.12
2023-06-17T08:14:53.732Z,69.32
2023-06-17T08:15:53.780Z,69.12
2023-06-17T08:16:53.693Z,68.62
2023-06-17T08:17:53.736Z,70.23
2023-06-17T08:18:53.667Z,69.92
2023-06-17T08:19:53.665Z,69.42
2023-06-17T08:20:53.637Z,69.52
2023-06-17T08:21:53.633Z,69.22
2023-06-17T08:22:53.607Z,66.51
2023-06-17T08:23:53.637Z,66.28
2023-06-17T08:24:53.694Z,67.38
2023-06-17T08:25:53.582Z,67.08
2023-06-17T08:26:53.566Z,67.88
2023-06-17T08:27:53.554Z,67.78
2023-06-17T08:28:53.538Z,67.68
2023-06-17T08:29:53.530Z,68.18
2023-06-17T08:30:53.509Z,67.65
2023-06-17T08:31:53.496Z,67.75
2023-06-17T08:32:53.499Z,67.25
2023-06-17T08:33:53.471Z,67.05
2023-06-17T08:34:53.474Z,65.64
2023-06-17T08:35:53.462Z,66.35
2023-06-17T08:36:53.432Z,67.02
2023-06-17T08:37:53.432Z,66.82
2023-06-17T08:38:53.408Z,65.91
2023-06-17T08:39:53.401Z,65.78
2023-06-17T08:40:53.377Z,64.48
2023-06-17T08:41:53.364Z,64.98
2023-06-17T08:42:53.344Z,64.98
2023-06-17T08:43:53.345Z,65.05
2023-06-17T08:44:53.325Z,65.75
2023-06-17T08:45:53.356Z,63.95
2023-06-17T08:46:53.301Z,63.14
2023-06-17T08:47:53.328Z,65.01
2023-06-17T08:48:53.276Z,64.51
2023-06-17T08:49:53.270Z,59.81
2023-06-17T08:50:53.263Z,59.91
2023-06-17T08:51:53.245Z,61.31
2023-06-17T08:52:55.164Z,61.41
2023-06-17T08:53:53.223Z,61.01
2023-06-17T08:54:53.191Z,60.68
2023-06-17T08:55:53.198Z,60.98
2023-06-17T08:56:53.174Z,59.18
2023-06-17T08:57:53.167Z,60.28
2023-06-17T08:58:53.140Z,59.68
2023-06-17T08:59:53.131Z,59.05
2023-06-17T09:00:53.178Z,59.45
2023-06-17T09:01:53.163Z,60.75
2023-06-17T09:02:53.146Z,60.75
2023-06-17T09:03:53.085Z,60.45
2023-06-17T09:04:53.125Z,58.65
2023-06-17T09:05:53.068Z,58.32
2023-06-17T09:06:53.053Z,58.42
2023-06-17T09:07:53.041Z,56.82
2023-06-17T09:08:53.031Z,57.32
2023-06-17T09:09:53.011Z,57.82
2023-06-17T09:10:52.988Z,57.29
2023-06-17T09:11:53.306Z,56.29
2023-06-17T09:12:53.007Z,56.89
2023-06-17T09:13:53.024Z,57.89
2023-06-17T09:14:52.947Z,59.89
2023-06-17T09:15:52.938Z,57.87
2023-06-17T09:16:52.966Z,57.87
2023-06-17T09:17:52.928Z,59.14
2023-06-17T09:18:52.896Z,58.24
2023-06-17T09:19:52.880Z,55.24
2023-06-17T09:20:52.903Z,55.21
2023-06-17T09:21:52.862Z,54.82
2023-06-17T09:22:52.840Z,53.02
2023-06-17T09:23:52.869Z,53.09
2023-06-17T09:24:52.812Z,51.32
2023-06-17T09:25:52.929Z,52.52
2023-06-17T09:26:52.796Z,52.99
2023-06-17T09:28:52.762Z,53.17
2023-06-17T09:29:52.745Z,52.27
2023-06-17T09:30:52.742Z,52.27
2023-06-17T09:31:52.731Z,51.97
2023-06-17T09:32:52.731Z,52.55
2023-06-17T09:33:52.689Z,52.55
2023-06-17T09:34:52.672Z,53.71
2023-06-17T09:35:52.689Z,52.22
2023-06-17T09:36:52.652Z,52.62
2023-06-17T09:38:52.620Z,52.09
2023-06-17T09:39:52.615Z,49.18
2023-06-17T09:40:54.203Z,49.48
2023-06-17T09:41:52.585Z,48.08
2023-06-17T09:42:52.579Z,49.18
2023-06-17T09:43:52.562Z,47.79
2023-06-17T09:44:52.540Z,48.56
2023-06-17T09:45:52.544Z,48.26
2023-06-17T09:46:52.653Z,47.69
2023-06-17T10:03:34.012Z,48.19
2023-06-17T10:04:35.824Z,45.71
2023-06-17T10:05:33.802Z,45.41
2023-06-17T10:06:33.785Z,45.81
2023-06-17T10:07:33.761Z,45.51
2023-06-17T10:08:33.780Z,46.68
2023-06-17T10:09:33.742Z,44.20
2023-06-17T10:10:33.737Z,46.88
2023-06-17T10:11:33.725Z,46.28
2023-06-17T10:12:33.702Z,46.48
2023-06-17T10:13:33.694Z,45.67
2023-06-17T10:14:33.689Z,46.76
2023-06-17T10:15:40.668Z,47.25
2023-06-17T10:16:33.647Z,45.74
2023-06-17T10:17:33.652Z,43.46
2023-06-17T10:18:33.640Z,45.45
2023-06-17T10:19:33.612Z,44.85
2023-06-17T10:20:33.593Z,45.25
2023-06-17T10:21:33.584Z,44.65
2023-06-17T10:22:33.579Z,44.25
2023-06-17T10:23:33.562Z,43.66
2023-06-17T10:24:33.663Z,44.06
2023-06-17T10:25:33.550Z,43.66
2023-06-17T10:26:33.520Z,42.77
2023-06-17T10:27:33.515Z,43.06
2023-06-17T10:28:33.508Z,41.58
2023-06-17T10:29:33.484Z,41.97
2023-06-17T10:30:33.471Z,41.60
2023-06-17T10:31:33.444Z,42.69
2023-06-17T10:32:33.472Z,41.79
2023-06-17T10:33:33.426Z,43.46
2023-06-17T10:34:33.428Z,45.94
2023-06-17T10:35:33.393Z,43.36
2023-06-17T10:36:33.394Z,42.47
2023-06-17T10:37:33.391Z,41.87
2023-06-17T10:38:33.364Z,41.46
2023-06-17T10:39:33.361Z,41.47
2023-06-17T10:40:33.333Z,42.25
2023-06-17T10:41:33.329Z,42.05
2023-06-17T10:42:33.320Z,40.17
2023-06-17T10:43:33.300Z,40.66
2023-06-17T10:44:33.287Z,40.76
2023-06-17T10:45:33.333Z,40.86
2023-06-17T10:46:33.272Z,40.56
2023-06-17T10:47:33.279Z,40.36
2023-06-17T10:48:33.229Z,41.26
2023-06-17T10:49:33.217Z,41.26
2023-06-17T10:50:33.200Z,41.83
2023-06-17T10:51:41.336Z,41.83
2023-06-17T10:52:34.181Z,41.33
2023-06-17T10:53:33.171Z,40.64
2023-06-17T10:54:33.152Z,41.41
2023-06-17T10:55:33.145Z,42.71
2023-06-17T10:56:33.131Z,41.60
2023-06-17T10:57:33.226Z,43.18
2023-06-17T10:58:33.111Z,43.08
2023-06-17T10:59:33.090Z,39.04
2023-06-17T11:00:33.113Z,41.02
2023-06-17T11:01:33.074Z,40.52
2023-06-17T11:02:33.241Z,39.65
2023-06-17T11:03:33.155Z,41.95
2023-06-17T11:04:33.162Z,40.48
2023-06-17T11:05:33.031Z,40.98
2023-06-17T11:06:32.992Z,40.80
2023-06-17T11:07:34.637Z,40.92
2023-06-17T11:08:32.980Z,41.42
2023-06-17T11:09:32.960Z,41.61
2023-06-17T11:10:33.008Z,40.64
2023-06-17T11:11:32.925Z,40.74
2023-06-17T11:12:32.916Z,39.45
2023-06-17T11:13:32.909Z,39.43
2023-06-17T11:14:32.900Z,39.31
2023-06-17T11:15:32.902Z,39.39
2023-06-17T11:16:32.901Z,38.40
2023-06-17T11:17:32.908Z,39.47
2023-06-17T11:18:32.845Z,39.15
2023-06-17T11:19:32.849Z,39.75
2023-06-17T11:20:32.809Z,39.67
2023-06-17T11:21:32.802Z,39.87
2023-06-17T11:22:32.787Z,39.47
2023-06-17T11:23:32.784Z,40.47
2023-06-17T11:24:32.933Z,40.84
2023-06-17T11:25:44.303Z,41.52
2023-06-17T11:26:33.733Z,41.69
2023-06-17T11:27:32.723Z,40.31
2023-06-17T11:28:32.717Z,41.77
2023-06-17T11:29:32.710Z,43.13
2023-06-17T11:30:32.715Z,37.99
2023-06-17T11:31:32.680Z,39.48
2023-06-17T11:32:32.705Z,38.39
2023-06-17T11:33:32.654Z,40.86
2023-06-17T11:34:32.830Z,37.32
2023-06-17T11:35:32.622Z,38.82
2023-06-17T11:36:32.607Z,38.92
2023-06-17T11:37:32.593Z,38.72
2023-06-17T11:38:32.587Z,37.63
2023-06-17T11:39:32.568Z,39.91
2023-06-17T11:40:32.549Z,39.22
2023-06-17T11:41:32.544Z,37.24
2023-06-17T11:42:32.540Z,38.23
2023-06-17T11:43:32.535Z,38.23
2023-06-17T11:44:32.523Z,39.99
2023-06-17T11:45:32.507Z,39.37
2023-06-17T11:46:32.529Z,38.47
2023-06-17T11:47:32.508Z,38.06
2023-06-17T11:48:32.455Z,38.27
2023-06-17T11:49:32.467Z,41.06
2023-06-17T11:50:32.426Z,42.44
2023-06-17T11:51:33.772Z,40.07
2023-06-17T11:52:32.413Z,37.41
2023-06-17T11:53:32.396Z,37.43
2023-06-17T11:54:32.375Z,38.36
2023-06-17T11:55:32.355Z,39.65
2023-06-17T11:56:32.343Z,37.75
2023-06-17T11:57:32.370Z,38.54
2023-06-17T11:58:32.357Z,38.03
2023-06-17T11:59:32.327Z,37.91
2023-06-17T12:00:32.285Z,38.39
2023-06-17T12:01:32.291Z,38.17
2023-06-17T12:02:32.380Z,38.65
2023-06-17T12:03:32.293Z,39.42
2023-06-17T12:04:32.373Z,38.21
2023-06-17T12:05:32.226Z,37.32
2023-06-17T12:06:32.226Z,35.85
2023-06-17T12:07:32.202Z,38.29
2023-06-17T12:08:32.201Z,36.42
2023-06-17T12:09:32.177Z,38.29
2023-06-17T12:10:32.180Z,36.02
2023-06-17T12:11:32.163Z,37.19
2023-06-17T12:12:32.157Z,36.52
2023-06-17T12:13:32.132Z,33.77
2023-06-17T12:14:32.115Z,35.85
2023-06-17T12:15:36.671Z,34.86
2023-06-17T12:16:33.099Z,34.66
2023-06-17T12:17:32.097Z,35.63
2023-06-17T12:18:32.060Z,34.84
2023-06-17T12:19:32.050Z,38.18
2023-06-17T12:20:32.048Z,34.43
2023-06-17T12:21:32.036Z,35.00
2023-06-17T12:22:32.027Z,33.84
2023-06-17T12:23:32.005Z,34.72
2023-06-17T12:24:32.032Z,33.94
2023-06-17T12:25:31.991Z,33.84
2023-06-17T12:26:31.964Z,34.13
2023-06-17T12:27:31.997Z,35.81
2023-06-17T12:28:31.936Z,34.63
2023-06-17T12:29:31.927Z,35.02
2023-06-17T12:30:31.922Z,35.91
2023-06-17T12:31:31.902Z,37.66
2023-06-17T12:32:31.949Z,35.77
2023-06-17T12:33:31.894Z,34.48
2023-06-17T12:34:31.886Z,34.30
2023-06-17T12:35:31.913Z,34.48
2023-06-17T12:36:31.839Z,33.31
2023-06-17T12:37:31.834Z,34.01
2023-06-17T12:38:31.811Z,33.53
2023-06-17T12:39:31.820Z,33.82
2023-06-17T12:40:31.836Z,34.03
2023-06-17T12:41:31.785Z,33.84
2023-06-17T12:42:31.793Z,35.99
2023-06-17T12:43:31.761Z,34.39
2023-06-17T12:44:31.778Z,34.00
2023-06-17T12:45:31.750Z,33.03
2023-06-17T12:46:31.835Z,34.53
2023-06-17T12:47:31.807Z,35.20
2023-06-17T12:48:31.685Z,34.33
2023-06-17T12:49:31.692Z,34.92
2023-06-17T12:50:31.771Z,33.94
2023-06-17T12:51:31.646Z,34.13
2023-06-17T12:52:31.636Z,33.64
2023-06-17T12:53:31.621Z,33.53
2023-06-17T12:54:31.626Z,35.69
2023-06-17T12:55:31.606Z,35.20
2023-06-17T12:56:31.578Z,35.88
2023-06-17T12:57:31.579Z,35.48
2023-06-17T12:58:31.560Z,34.51
2023-06-17T12:59:31.555Z,34.72
2023-06-17T13:00:31.542Z,35.55
2023-06-17T13:01:31.561Z,38.53
2023-06-17T13:02:31.524Z,36.36
2023-06-17T13:03:31.508Z,38.65
2023-06-17T13:04:31.557Z,39.54
2023-06-17T13:05:31.473Z,39.26
2023-06-17T13:06:31.453Z,40.74
2023-06-17T13:07:31.450Z,37.98
2023-06-17T13:08:31.449Z,34.91
2023-06-17T13:09:31.430Z,35.52
2023-06-17T13:10:31.406Z,35.34
2023-06-17T13:11:31.394Z,36.52
2023-06-17T13:12:31.391Z,34.27
2023-06-17T13:13:31.389Z,33.47
2023-06-17T13:14:31.354Z,34.34
2023-06-17T13:15:31.386Z,34.74
2023-06-17T13:16:31.368Z,34.81
2023-06-17T13:17:31.377Z,34.79
2023-06-17T13:18:31.311Z,34.28
2023-06-17T13:19:31.291Z,33.00
2023-06-17T13:20:31.283Z,33.28
2023-06-17T13:21:31.265Z,32.59
2023-06-17T13:22:31.267Z,33.75